Time;durP1;ratioP1;P1;durP2;ratioP2;P2;SDS_P1;SDS_P2;PMS_P1;PMS_P2;Temp;Humidity;BMP_temperature;BMP_pressure;BME280_temperature;BME280_humidity;BME280_pressure;Samples;Min_cycle;Max_cycle;Signal;HPM_P1;HPM_P2
2022/12/07 00:01:46;;;;;;;9.20;6.60;;;;;;;2.38;100.00;100894.16;103281;1294;59409;-76
2022/12/07 00:04:17;;;;;;;8.90;6.70;;;;;;;2.36;100.00;100891.66;103103;1294;73648;-78
2022/12/07 00:06:52;;;;;;;8.50;6.20;;;;;;;2.38;100.00;100890.71;103338;1299;62358;-76
2022/12/07 00:09:21;;;;;;;9.20;6.90;;;;;;;2.49;100.00;100889.96;103242;1298;70521;-80
2022/12/07 00:11:51;;;;;;;12.90;7.70;;;;;;;2.70;100.00;100889.40;103250;1292;73806;-81
2022/12/07 00:14:21;;;;;;;10.20;6.40;;;;;;;2.70;100.00;100891.63;103206;1300;58495;-80
2022/12/07 00:16:52;;;;;;;10.80;7.20;;;;;;;2.70;100.00;100887.33;103339;1299;60461;-79
2022/12/07 00:19:20;;;;;;;10.20;7.40;;;;;;;2.75;100.00;100887.64;103402;1300;73028;-83
2022/12/07 00:21:49;;;;;;;10.40;6.90;;;;;;;2.82;100.00;100893.94;103268;1295;61944;-77
2022/12/07 00:24:18;;;;;;;10.90;7.30;;;;;;;2.87;100.00;100902.02;103538;1289;60236;-77
2022/12/07 00:26:47;;;;;;;9.80;6.40;;;;;;;2.91;100.00;100899.61;103383;1291;63390;-76
2022/12/07 00:29:21;;;;;;;11.10;7.30;;;;;;;2.94;100.00;100888.50;103270;1293;61324;-79
2022/12/07 00:31:50;;;;;;;10.20;7.10;;;;;;;2.79;100.00;100888.38;103497;1293;60336;-76
2022/12/07 00:34:21;;;;;;;18.50;8.60;;;;;;;2.74;100.00;100895.44;103306;1299;73517;-77
2022/12/07 00:36:50;;;;;;;15.20;9.20;;;;;;;2.68;100.00;100897.20;103365;1293;63343;-75
2022/12/07 00:39:19;;;;;;;15.20;9.50;;;;;;;2.61;100.00;100898.51;103433;1293;59276;-76
2022/12/07 00:41:47;;;;;;;17.20;10.80;;;;;;;2.60;100.00;100891.98;103285;1293;73157;-75
2022/12/07 00:44:16;;;;;;;16.70;10.40;;;;;;;2.70;100.00;100889.73;103236;1292;59054;-76
2022/12/07 00:46:45;;;;;;;22.00;10.10;;;;;;;2.79;100.00;100887.17;103281;1288;57561;-76
2022/12/07 00:49:14;;;;;;;17.20;10.30;;;;;;;2.83;100.00;100889.08;103332;1301;62273;-77
2022/12/07 00:51:43;;;;;;;17.30;10.10;;;;;;;2.73;100.00;100882.40;103353;1292;60930;-77
2022/12/07 00:54:11;;;;;;;17.80;10.40;;;;;;;2.93;100.00;100886.80;103149;1295;70713;-78
2022/12/07 00:56:40;;;;;;;15.30;10.30;;;;;;;2.92;100.00;100882.71;103164;1295;63286;-77
2022/12/07 00:59:16;;;;;;;14.20;9.60;;;;;;;2.82;100.00;100879.48;103186;1295;59183;-77
2022/12/07 01:01:44;;;;;;;15.10;10.30;;;;;;;2.89;100.00;100873.55;102987;1292;59921;-75
2022/12/07 01:04:14;;;;;;;16.70;9.10;;;;;;;2.93;100.00;100869.59;103208;1292;74328;-75
2022/12/07 01:06:42;;;;;;;20.00;10.70;;;;;;;2.94;100.00;100865.98;103111;1295;71550;-76
2022/12/07 01:09:11;;;;;;;16.10;10.00;;;;;;;2.95;100.00;100862.98;103055;1304;60249;-76
2022/12/07 01:11:40;;;;;;;16.20;9.70;;;;;;;3.02;100.00;100862.73;103157;1296;74283;-77
2022/12/07 01:14:09;;;;;;;13.90;9.20;;;;;;;3.00;100.00;100861.58;103088;1295;61754;-75
2022/12/07 01:16:38;;;;;;;11.40;8.20;;;;;;;2.94;100.00;100854.44;103047;1289;61425;-75
2022/12/07 01:19:07;;;;;;;11.40;7.60;;;;;;;2.94;100.00;100852.21;103183;1288;72754;-75
2022/12/07 01:21:38;;;;;;;13.70;8.30;;;;;;;2.99;100.00;100846.33;103152;1288;71723;-74
2022/12/07 01:24:10;;;;;;;13.50;8.30;;;;;;;3.04;100.00;100839.75;103035;1292;69534;-76
2022/12/07 01:26:39;;;;;;;13.00;8.10;;;;;;;3.09;100.00;100840.61;103067;1299;62891;-73
2022/12/07 01:29:08;;;;;;;13.00;9.20;;;;;;;3.12;100.00;100848.75;103002;1304;57602;-76
2022/12/07 01:31:37;;;;;;;13.10;8.10;;;;;;;3.18;100.00;100851.61;103175;1292;59185;-76
2022/12/07 01:34:06;;;;;;;12.20;7.80;;;;;;;3.22;100.00;100850.41;103205;1285;73370;-75
2022/12/07 01:36:36;;;;;;;12.90;8.00;;;;;;;3.21;100.00;100846.67;103078;1304;71935;-77
2022/12/07 01:39:07;;;;;;;14.70;8.10;;;;;;;3.30;100.00;100843.89;103162;1292;71915;-76
2022/12/07 01:41:40;;;;;;;11.90;7.40;;;;;;;3.32;100.00;100839.16;103187;1299;74241;-75
2022/12/07 01:44:16;;;;;;;11.50;7.60;;;;;;;3.33;100.00;100835.34;103074;1295;63159;-76
2022/12/07 01:46:56;;;;;;;14.90;9.40;;;;;;;3.36;100.00;100828.34;103292;1301;61219;-78
2022/12/07 01:49:41;;;;;;;14.60;8.30;;;;;;;3.25;100.00;100831.88;103238;1299;72117;-76
2022/12/07 01:52:30;;;;;;;11.50;7.20;;;;;;;3.21;100.00;100826.86;103075;1299;72286;-75
2022/12/07 01:55:12;;;;;;;13.60;7.80;;;;;;;3.29;100.00;100828.12;103194;1292;70939;-71
2022/12/07 01:57:47;;;;;;;14.80;8.10;;;;;;;3.22;100.00;100833.20;103080;1289;74075;-74
2022/12/07 02:00:17;;;;;;;10.90;7.50;;;;;;;3.09;100.00;100824.25;103109;1295;59171;-74
2022/12/07 02:03:00;;;;;;;14.10;7.90;;;;;;;3.03;100.00;100822.63;103044;1292;59562;-75
2022/12/07 02:05:29;;;;;;;16.50;8.20;;;;;;;3.16;100.00;100820.86;103184;1289;73422;-80
2022/12/07 02:07:59;;;;;;;13.50;7.20;;;;;;;3.24;100.00;100813.16;103218;1289;71235;-80
2022/12/07 02:10:31;;;;;;;13.80;7.10;;;;;;;3.22;100.00;100816.34;103121;1295;60409;-78
2022/12/07 02:13:21;;;;;;;13.00;8.20;;;;;;;3.28;100.00;100810.91;103174;1295;73161;-78
2022/12/07 02:16:28;;;;;;;12.50;7.20;;;;;;;3.26;100.00;100813.75;103161;1303;58633;-76
2022/12/07 02:19:39;;;;;;;11.30;7.80;;;;;;;3.22;100.00;100809.45;103281;1292;59179;-75
2022/12/07 02:23:05;;;;;;;10.60;6.80;;;;;;;3.25;100.00;100798.31;103182;1296;62877;-77
2022/12/07 02:25:49;;;;;;;12.30;7.20;;;;;;;3.36;100.00;100803.02;103313;1298;69104;-80
2022/12/07 02:29:16;;;;;;;12.10;7.20;;;;;;;3.30;100.00;100806.20;103196;1293;69838;-82
2022/12/07 02:32:14;;;;;;;12.20;7.60;;;;;;;3.32;100.00;100801.61;104990;1298;63203;-80
2022/12/07 02:35:09;;;;;;;12.70;6.90;;;;;;;3.39;100.00;100799.29;105112;1302;61703;-81
2022/12/07 02:37:51;;;;;;;11.60;6.80;;;;;;;3.39;100.00;100798.76;105246;1287;57691;-78
2022/12/07 02:40:35;;;;;;;13.50;7.80;;;;;;;3.45;100.00;100804.39;105156;1295;63027;-78
2022/12/07 02:43:23;;;;;;;12.70;7.00;;;;;;;3.49;100.00;100809.04;105151;1300;61831;-78
2022/12/07 02:46:21;;;;;;;13.80;8.20;;;;;;;3.52;100.00;100812.53;105139;1299;70639;-78
2022/12/07 02:48:51;;;;;;;11.10;7.50;;;;;;;3.54;100.00;100811.06;105328;1292;74034;-78
2022/12/07 02:51:22;;;;;;;11.90;7.30;;;;;;;3.61;100.00;100818.52;105103;1291;57707;-78
2022/12/07 02:53:50;;;;;;;12.50;7.50;;;;;;;3.68;100.00;100813.05;105261;1295;60324;-78
2022/12/07 02:56:43;;;;;;;13.50;8.10;;;;;;;3.76;100.00;100807.54;105274;1299;62273;-78
2022/12/07 02:59:48;;;;;;;11.90;7.80;;;;;;;3.85;100.00;100804.41;105476;1286;72268;-80
2022/12/07 03:02:39;;;;;;;12.70;7.40;;;;;;;3.84;100.00;100796.52;105337;1289;69975;-80
2022/12/07 03:05:54;;;;;;;12.50;7.50;;;;;;;3.81;100.00;100798.22;105323;1290;72265;-79
2022/12/07 03:08:37;;;;;;;10.30;6.70;;;;;;;3.75;100.00;100797.77;105349;1290;63428;-79
2022/12/07 03:12:15;;;;;;;13.10;7.30;;;;;;;3.77;100.00;100798.54;105350;1290;58545;-80
2022/12/07 03:14:55;;;;;;;12.50;7.50;;;;;;;3.75;100.00;100797.08;105147;1296;73904;-80
2022/12/07 03:17:31;;;;;;;13.80;8.50;;;;;;;3.75;100.00;100804.13;105369;1287;61245;-78
2022/12/07 03:20:07;;;;;;;11.80;7.50;;;;;;;3.81;100.00;100807.34;105132;1292;70194;-83
2022/12/07 03:22:38;;;;;;;12.60;7.20;;;;;;;3.83;100.00;100814.81;105286;1291;71147;-84
2022/12/07 03:25:12;;;;;;;12.30;8.00;;;;;;;3.87;100.00;100807.28;105073;1292;62012;-84
2022/12/07 03:27:58;;;;;;;11.20;7.70;;;;;;;3.99;100.00;100810.70;105276;1290;59539;-73
2022/12/07 03:31:05;;;;;;;12.50;7.80;;;;;;;4.01;100.00;100807.48;105259;1296;62156;-72
2022/12/07 03:33:42;;;;;;;11.10;7.50;;;;;;;4.05;100.00;100803.57;105398;1290;71367;-72
2022/12/07 03:36:21;;;;;;;14.90;7.90;;;;;;;4.06;100.00;100802.98;105228;1296;69654;-75
2022/12/07 03:39:17;;;;;;;16.00;9.30;;;;;;;4.07;100.00;100803.97;105357;1288;63128;-74
2022/12/07 03:41:46;;;;;;;12.20;7.40;;;;;;;4.09;100.00;100810.62;105374;1298;57224;-77
2022/12/07 03:44:16;;;;;;;11.80;7.80;;;;;;;4.13;100.00;100807.17;105176;1293;57683;-78
2022/12/07 03:47:01;;;;;;;17.10;9.10;;;;;;;4.11;100.00;100808.11;105333;1295;72871;-79
2022/12/07 03:49:43;;;;;;;12.50;7.70;;;;;;;4.15;100.00;100804.31;105413;1294;62129;-75
2022/12/07 03:52:27;;;;;;;16.00;9.30;;;;;;;4.13;100.00;100805.44;105037;1292;59923;-75
2022/12/07 03:54:55;;;;;;;;;;;;;;;4.18;100.00;100810.38;105281;1298;73346;-73
2022/12/07 03:57:26;;;;;;;14.50;8.90;;;;;;;4.19;100.00;100814.29;105381;1291;57131;-75
2022/12/07 03:59:57;;;;;;;14.50;9.30;;;;;;;4.25;100.00;100810.05;105307;1289;58210;-76
2022/12/07 04:02:28;;;;;;;13.50;8.50;;;;;;;4.20;100.00;100805.29;105047;1297;72952;-73
2022/12/07 04:04:57;;;;;;;14.20;9.00;;;;;;;4.19;100.00;100801.04;105313;1293;61763;-73
2022/12/07 04:07:26;;;;;;;14.90;9.50;;;;;;;4.23;100.00;100802.91;105290;1299;60154;-74
2022/12/07 04:09:55;;;;;;;15.00;8.70;;;;;;;4.25;100.00;100806.80;105401;1289;73987;-74
2022/12/07 04:12:23;;;;;;;12.10;8.50;;;;;;;4.25;100.00;100806.10;105420;1287;63519;-74
2022/12/07 04:14:52;;;;;;;14.20;9.10;;;;;;;4.26;100.00;100804.53;105191;1294;57703;-74
2022/12/07 04:17:21;;;;;;;14.30;9.40;;;;;;;4.26;100.00;100802.62;105484;1292;63133;-74
2022/12/07 04:19:50;;;;;;;12.90;8.80;;;;;;;4.28;100.00;100804.42;105636;1287;71548;-74
2022/12/07 04:22:18;;;;;;;13.40;8.30;;;;;;;4.22;100.00;100806.94;105481;1289;60575;-73
2022/12/07 04:24:47;;;;;;;15.40;9.20;;;;;;;4.11;100.00;100809.85;105486;1293;62987;-85
2022/12/07 04:27:16;;;;;;;18.60;9.70;;;;;;;4.12;100.00;100806.70;105458;1292;62235;-81
2022/12/07 04:29:44;;;;;;;16.20;9.50;;;;;;;4.04;100.00;100800.33;105438;1288;57476;-74
2022/12/07 04:32:13;;;;;;;21.10;11.10;;;;;;;4.00;100.00;100792.55;105470;1287;62347;-73
2022/12/07 04:34:41;;;;;;;17.20;9.80;;;;;;;4.07;100.00;100794.66;105676;1284;71438;-81
2022/12/07 04:37:10;;;;;;;15.80;9.90;;;;;;;4.08;100.00;100789.12;105371;1296;59202;-83
2022/12/07 04:39:39;;;;;;;28.20;15.50;;;;;;;4.15;100.00;100790.16;105487;1297;62673;-81
2022/12/07 04:42:07;;;;;;;20.90;9.80;;;;;;;4.10;100.00;100788.52;105403;1287;62297;-81
2022/12/07 04:44:36;;;;;;;17.80;11.00;;;;;;;4.09;100.00;100786.48;105516;1292;57201;-81
2022/12/07 04:47:05;;;;;;;16.90;10.30;;;;;;;4.07;100.00;100788.48;105430;1290;62260;-81
2022/12/07 04:49:34;;;;;;;19.60;10.40;;;;;;;4.07;100.00;100787.80;105422;1290;61690;-77
2022/12/07 04:52:03;;;;;;;17.60;9.30;;;;;;;4.12;100.00;100788.95;105469;1289;61637;-77
2022/12/07 04:54:31;;;;;;;16.90;10.90;;;;;;;4.15;100.00;100789.16;105477;1289;74175;-80
2022/12/07 04:57:00;;;;;;;22.00;10.80;;;;;;;4.18;100.00;100788.14;105570;1290;57623;-78
2022/12/07 04:59:29;;;;;;;17.30;10.50;;;;;;;4.22;100.00;100785.18;105416;1293;57647;-75
2022/12/07 05:01:57;;;;;;;18.60;11.30;;;;;;;4.28;100.00;100784.95;105403;1292;73683;-79
2022/12/07 05:04:26;;;;;;;15.10;9.90;;;;;;;4.26;100.00;100788.13;105593;1287;61599;-77
2022/12/07 05:06:55;;;;;;;17.80;8.90;;;;;;;4.23;100.00;100786.17;104347;1289;1313624;-83
2022/12/07 05:09:24;;;;;;;16.90;10.30;;;;;;;4.28;100.00;100783.73;105352;1292;73181;-76
2022/12/07 05:11:52;;;;;;;15.90;10.00;;;;;;;4.20;100.00;100780.46;105348;1288;62588;-76
2022/12/07 05:14:21;;;;;;;14.80;9.80;;;;;;;4.23;100.00;100786.19;105308;1292;60246;-76
2022/12/07 05:16:51;;;;;;;14.60;9.60;;;;;;;4.20;100.00;100787.55;105219;1290;72816;-76
2022/12/07 05:19:20;;;;;;;16.00;9.90;;;;;;;4.16;100.00;100789.09;105317;1287;62291;-75
2022/12/07 05:21:49;;;;;;;15.30;9.80;;;;;;;4.05;100.00;100785.96;105296;1296;60157;-76
2022/12/07 05:24:18;;;;;;;16.70;9.90;;;;;;;4.13;100.00;100793.39;105437;1292;74068;-75
2022/12/07 05:26:46;;;;;;;13.80;9.30;;;;;;;4.07;100.00;100792.42;105425;1289;63342;-75
2022/12/07 05:29:17;;;;;;;15.30;10.00;;;;;;;4.10;100.00;100789.19;105392;1293;57663;-83
2022/12/07 05:31:47;;;;;;;17.80;9.90;;;;;;;4.11;100.00;100793.30;105366;1291;72946;-79
2022/12/07 05:34:16;;;;;;;17.60;10.70;;;;;;;4.14;100.00;100794.21;105620;1290;71281;-83
2022/12/07 05:36:47;;;;;;;17.40;11.30;;;;;;;4.13;100.00;100799.08;105320;1287;60660;-79
2022/12/07 05:39:16;;;;;;;16.70;11.10;;;;;;;4.14;100.00;100802.80;105297;1293;72821;-81
2022/12/07 05:44:35;;;;;;;24.60;12.50;;;;;;;4.19;100.00;100805.86;105287;1289;57752;-82
2022/12/07 05:47:05;;;;;;;18.90;12.00;;;;;;;4.14;100.00;100808.66;105339;1293;72083;-80
2022/12/07 05:49:34;;;;;;;17.60;12.30;;;;;;;4.21;100.00;100810.42;105435;1290;60803;-79
2022/12/07 05:52:03;;;;;;;22.00;13.20;;;;;;;4.25;100.00;100809.37;105410;1289;69829;-76
2022/12/07 05:54:32;;;;;;;24.10;13.70;;;;;;;4.21;100.00;100812.15;105131;1294;72921;-80
2022/12/07 05:57:01;;;;;;;22.00;14.20;;;;;;;4.22;100.00;100812.30;105235;1296;57475;-79
2022/12/07 05:59:30;;;;;;;23.80;13.70;;;;;;;4.26;100.00;100813.50;105366;1292;60344;-80
2022/12/07 06:02:06;;;;;;;21.80;13.60;;;;;;;4.27;100.00;100816.04;105293;1292;74338;-81
2022/12/07 06:04:40;;;;;;;19.40;12.80;;;;;;;4.27;100.00;100815.01;105281;1301;72680;-79
2022/12/07 06:07:12;;;;;;;27.20;16.00;;;;;;;4.27;100.00;100814.64;105328;1301;61109;-78
2022/12/07 06:09:41;;;;;;;24.10;13.80;;;;;;;4.23;100.00;100820.88;105412;1293;64511;-80
2022/12/07 06:15:00;;;;;;;24.70;13.50;;;;;;;4.27;100.00;100822.58;105331;1293;61167;-82
2022/12/07 06:17:28;;;;;;;27.70;15.90;;;;;;;4.19;100.00;100817.08;105293;1289;73390;-81
2022/12/07 06:19:57;;;;;;;24.50;15.50;;;;;;;4.21;100.00;100815.27;105382;1288;61805;-80
2022/12/07 06:22:26;;;;;;;28.50;16.80;;;;;;;4.25;100.00;100817.16;105174;1295;60121;-81
2022/12/07 06:24:55;;;;;;;28.30;17.90;;;;;;;4.28;100.00;100818.22;105255;1290;74040;-80
2022/12/07 06:27:23;;;;;;;29.70;19.70;;;;;;;4.32;100.00;100816.84;105117;1296;58043;-80
2022/12/07 06:29:52;;;;;;;29.90;17.90;;;;;;;4.35;100.00;100814.45;105051;1295;58215;-81
2022/12/07 06:32:21;;;;;;;26.20;17.50;;;;;;;4.42;100.00;100813.10;105179;1289;72913;-80
2022/12/07 06:34:49;;;;;;;30.30;17.30;;;;;;;4.45;100.00;100816.55;105140;1287;72068;-77
2022/12/07 06:37:18;;;;;;;89.50;23.00;;;;;;;4.53;100.00;100808.30;104942;1295;60241;-82
2022/12/07 06:39:47;;;;;;;28.90;15.80;;;;;;;4.61;100.00;100809.66;105211;1290;74038;-78
2022/12/07 06:42:15;;;;;;;27.10;16.80;;;;;;;4.66;100.00;100811.98;105235;1292;63762;-80
2022/12/07 06:44:44;;;;;;;20.10;12.60;;;;;;;4.66;100.00;100808.23;105332;1284;57189;-77
2022/12/07 06:47:13;;;;;;;23.50;14.00;;;;;;;4.68;100.00;100812.42;105343;1288;72278;-79
2022/12/07 06:50:02;;;;;;;27.20;15.50;;;;;;;4.58;100.00;100806.85;105412;1286;71415;-81
2022/12/07 06:52:31;;;;;;;36.00;16.10;;;;;;;4.54;100.00;100794.42;105239;1298;68533;-79
2022/12/07 06:55:00;;;;;;;29.90;18.60;;;;;;;4.54;100.00;100806.33;105326;1293;73916;-79
2022/12/07 06:57:28;;;;;;;62.60;30.20;;;;;;;4.52;100.00;100805.05;105120;1302;57708;-81
2022/12/07 06:59:57;;;;;;;26.20;16.10;;;;;;;4.47;100.00;100803.23;105263;1299;57712;-80
2022/12/07 07:02:26;;;;;;;22.40;14.80;;;;;;;4.44;100.00;100798.91;105158;1293;63054;-81
2022/12/07 07:04:55;;;;;;;29.40;16.30;;;;;;;4.43;100.00;100795.47;105401;1293;62439;-81
2022/12/07 07:07:23;;;;;;;24.30;13.80;;;;;;;4.41;100.00;100795.55;105247;1294;70398;-80
2022/12/07 07:09:52;;;;;;;18.20;12.30;;;;;;;4.41;100.00;100796.59;105375;1299;62500;-78
2022/12/07 07:12:21;;;;;;;22.60;13.60;;;;;;;4.40;100.00;100799.05;105397;1289;60575;-80
2022/12/07 07:14:50;;;;;;;29.90;14.30;;;;;;;4.40;100.00;100799.24;105276;1288;60560;-79
2022/12/07 07:17:18;;;;;;;25.40;14.30;;;;;;;4.39;100.00;100795.49;105386;1294;61939;-80
2022/12/07 07:19:47;;;;;;;26.50;14.10;;;;;;;4.40;100.00;100793.52;105424;1289;69822;-80
2022/12/07 07:22:15;;;;;;;24.20;14.10;;;;;;;4.42;100.00;100793.80;105229;1295;70614;-80
2022/12/07 07:24:45;;;;;;;23.70;12.70;;;;;;;4.44;100.00;100793.36;105420;1298;73661;-80
2022/12/07 07:27:14;;;;;;;20.50;13.00;;;;;;;4.45;100.00;100798.30;105409;1292;57600;-80
2022/12/07 07:29:43;;;;;;;25.40;15.00;;;;;;;4.44;100.00;100795.39;105320;1295;57617;-80
2022/12/07 07:32:12;;;;;;;29.00;19.20;;;;;;;4.48;100.00;100790.23;105166;1300;62673;-79
2022/12/07 07:34:40;;;;;;;28.80;19.00;;;;;;;4.49;100.00;100788.14;105515;1294;72048;-79
2022/12/07 07:37:10;;;;;;;34.20;22.50;;;;;;;4.48;100.00;100792.80;105313;1294;60075;-77
2022/12/07 07:39:42;;;;;;;32.20;20.90;;;;;;;4.47;100.00;100795.29;105337;1295;63355;-82
2022/12/07 07:42:11;;;;;;;27.40;17.70;;;;;;;4.48;100.00;100796.61;105302;1293;63169;-78
2022/12/07 07:44:39;;;;;;;29.50;20.20;;;;;;;4.56;100.00;100800.94;105302;1300;60112;-79
2022/12/07 07:47:08;;;;;;;32.80;19.60;;;;;;;4.58;100.00;100803.42;105387;1298;72459;-82
2022/12/07 07:49:37;;;;;;;31.60;19.70;;;;;;;4.58;100.00;100804.79;105458;1290;71606;-79
2022/12/07 07:52:13;;;;;;;30.70;19.90;;;;;;;4.64;100.00;100807.62;105310;1296;59936;-79
2022/12/07 07:54:42;;;;;;;33.70;19.20;;;;;;;4.74;100.00;100808.52;105309;1290;72957;-83
2022/12/07 07:57:10;;;;;;;31.30;21.80;;;;;;;4.81;100.00;100809.05;105250;1292;63520;-75
2022/12/07 07:59:39;;;;;;;34.20;22.00;;;;;;;4.84;100.00;100811.00;105386;1294;57735;-79
2022/12/07 08:02:18;;;;;;;39.90;26.40;;;;;;;4.93;100.00;100816.08;105280;1294;73711;-81
2022/12/07 08:04:46;;;;;;;42.30;26.60;;;;;;;5.01;100.00;100821.73;105316;1287;62546;-80
2022/12/07 08:07:16;;;;;;;37.00;24.30;;;;;;;5.13;100.00;100823.98;105274;1293;60716;-81
2022/12/07 08:09:44;;;;;;;33.60;21.90;;;;;;;5.26;100.00;100819.88;105137;1291;74015;-80
2022/12/07 08:12:13;;;;;;;36.40;22.40;;;;;;;5.33;100.00;100820.19;105366;1282;57665;-79
2022/12/07 08:14:42;;;;;;;32.90;21.10;;;;;;;5.42;100.00;100821.86;105250;1296;57413;-78
2022/12/07 08:17:10;;;;;;;27.20;17.80;;;;;;;5.57;100.00;100817.45;105401;1292;72971;-80
2022/12/07 08:19:39;;;;;;;25.50;16.20;;;;;;;5.67;100.00;100818.37;105382;1290;71441;-79
2022/12/07 08:22:08;;;;;;;25.70;16.30;;;;;;;5.76;100.00;100815.67;105427;1295;68804;-80
2022/12/07 08:24:37;;;;;;;29.00;16.10;;;;;;;5.82;100.00;100816.90;105364;1298;72766;-80
2022/12/07 08:27:05;;;;;;;26.10;15.60;;;;;;;6.02;100.00;100814.36;105258;1290;63179;-80
2022/12/07 08:29:34;;;;;;;25.60;14.60;;;;;;;6.00;99.55;100812.20;105353;1289;57773;-78
2022/12/07 08:32:03;;;;;;;22.20;14.40;;;;;;;6.00;98.05;100808.59;105411;1291;63593;-79
2022/12/07 08:34:37;;;;;;;24.40;14.80;;;;;;;6.12;97.00;100810.40;105499;1289;72661;-79
2022/12/07 08:37:08;;;;;;;24.20;15.40;;;;;;;6.21;97.74;100805.94;105390;1292;70275;-80
2022/12/07 08:39:36;;;;;;;22.70;14.00;;;;;;;6.18;96.21;100804.01;105445;1293;74294;-81
2022/12/07 08:42:05;;;;;;;21.30;14.40;;;;;;;6.21;96.91;100801.43;105298;1299;57755;-80
2022/12/07 08:44:34;;;;;;;26.50;15.80;;;;;;;6.31;96.47;100800.74;105403;1292;59735;-80
2022/12/07 08:47:06;;;;;;;23.10;14.20;;;;;;;6.44;96.79;100800.38;105481;1290;73113;-80
2022/12/07 08:49:40;;;;;;;28.60;17.30;;;;;;;6.44;95.36;100804.75;105372;1287;72178;-80
2022/12/07 08:52:09;;;;;;;25.70;15.50;;;;;;;6.47;95.20;100802.98;105167;1289;59053;-79
2022/12/07 08:54:40;;;;;;;22.70;14.30;;;;;;;6.57;94.97;100796.92;105312;1290;63659;-81
2022/12/07 08:57:10;;;;;;;23.10;14.60;;;;;;;6.52;94.57;100795.48;105170;1301;57619;-81
2022/12/07 08:59:39;;;;;;;21.20;13.70;;;;;;;6.66;94.58;100794.69;105142;1296;61640;-79
2022/12/07 09:02:07;;;;;;;19.80;13.00;;;;;;;6.66;93.96;100791.58;105171;1298;73185;-79
2022/12/07 09:04:36;;;;;;;18.80;12.60;;;;;;;6.76;93.76;100791.21;105249;1292;72740;-83
2022/12/07 09:07:05;;;;;;;20.80;13.40;;;;;;;6.92;92.95;100791.17;105396;1289;68526;-80
2022/12/07 09:09:34;;;;;;;17.20;12.30;;;;;;;7.04;92.60;100790.33;105260;1292;73998;-80
2022/12/07 09:12:04;;;;;;;17.70;12.00;;;;;;;6.91;92.42;100789.70;105305;1290;57661;-78
2022/12/07 09:14:32;;;;;;;17.10;11.20;;;;;;;7.03;92.08;100786.05;105280;1299;60696;-80
2022/12/07 09:17:07;;;;;;;17.40;11.10;;;;;;;7.06;91.18;100780.73;105375;1299;63594;-81
2022/12/07 09:19:36;;;;;;;15.90;10.70;;;;;;;6.89;91.13;100775.25;105487;1290;61850;-80
2022/12/07 09:22:05;;;;;;;17.10;10.10;;;;;;;7.04;91.28;100778.21;105128;1293;60098;-80
2022/12/07 09:24:34;;;;;;;20.10;11.50;;;;;;;7.28;90.92;100776.36;105213;1296;62564;-80
2022/12/07 09:27:03;;;;;;;15.70;9.40;;;;;;;7.33;89.61;100776.23;105214;1288;63022;-80
2022/12/07 09:29:32;;;;;;;15.40;9.10;;;;;;;7.35;88.93;100773.17;105372;1293;57679;-82
2022/12/07 09:32:01;;;;;;;15.20;10.20;;;;;;;7.36;89.29;100773.27;105292;1295;62115;-80
2022/12/07 09:34:35;;;;;;;15.60;9.70;;;;;;;7.45;88.37;100767.36;105329;1290;61491;-80
2022/12/07 09:37:04;;;;;;;15.10;10.80;;;;;;;7.51;87.86;100767.17;105271;1292;60131;-80
2022/12/07 09:39:33;;;;;;;16.20;10.30;;;;;;;7.69;87.36;100769.58;105049;1302;71426;-80
2022/12/07 09:42:04;;;;;;;15.10;10.20;;;;;;;7.61;86.35;100765.57;105121;1296;60367;-81
2022/12/07 09:44:35;;;;;;;15.30;9.50;;;;;;;7.50;86.00;100763.94;104979;1302;60101;-81
2022/12/07 09:47:04;;;;;;;15.00;9.60;;;;;;;7.80;86.55;100767.02;105127;1299;62000;-81
2022/12/07 09:49:33;;;;;;;15.20;9.50;;;;;;;7.96;86.05;100767.13;105247;1290;71437;-80
2022/12/07 09:52:16;;;;;;;17.00;9.50;;;;;;;7.72;85.15;100761.42;105307;1291;71235;-80
2022/12/07 09:54:49;;;;;;;16.00;9.40;;;;;;;7.99;85.51;100757.92;105210;1292;64269;-80
2022/12/07 09:57:29;;;;;;;16.20;10.60;;;;;;;8.03;84.36;100759.56;104861;1302;61444;-78
2022/12/07 10:00:04;;;;;;;15.20;9.80;;;;;;;8.14;84.29;100762.72;105274;1290;57232;-82
2022/12/07 10:02:46;;;;;;;14.90;9.80;;;;;;;8.35;83.64;100763.17;105267;1282;71995;-82
2022/12/07 10:05:31;;;;;;;15.10;8.50;;;;;;;8.30;83.58;100757.60;105154;1292;61062;-80
2022/12/07 10:08:00;;;;;;;14.20;9.00;;;;;;;8.45;82.74;100758.72;104943;1295;70627;-81
2022/12/07 10:10:38;;;;;;;15.40;9.10;;;;;;;8.18;81.86;100753.27;105120;1297;73786;-80
2022/12/07 10:13:13;;;;;;;14.70;10.00;;;;;;;8.28;82.60;100748.48;105143;1298;62483;-82
2022/12/07 10:15:52;;;;;;;15.20;9.60;;;;;;;8.25;81.59;100743.48;105160;1296;57620;-82
2022/12/07 10:18:38;;;;;;;19.10;10.60;;;;;;;8.47;81.75;100742.64;105257;1292;73619;-78
2022/12/07 10:21:25;;;;;;;67.50;15.90;;;;;;;8.52;81.36;100739.71;105368;1291;71757;-80
2022/12/07 10:24:06;;;;;;;15.90;10.10;;;;;;;8.56;80.97;100739.65;105124;1296;70527;-81
2022/12/07 10:26:46;;;;;;;15.80;9.30;;;;;;;8.61;80.81;100741.55;105073;1296;73447;-83
2022/12/07 10:29:23;;;;;;;15.60;10.00;;;;;;;8.49;80.19;100743.06;105130;1295;57649;-80
2022/12/07 10:32:00;;;;;;;14.90;9.60;;;;;;;8.34;79.63;100740.30;105223;1292;59087;-80
2022/12/07 10:34:37;;;;;;;19.10;11.30;;;;;;;8.31;80.76;100742.27;105260;1293;63059;-80
2022/12/07 10:37:16;;;;;;;20.50;11.20;;;;;;;8.33;81.16;100739.89;105350;1294;71437;-80
2022/12/07 10:39:56;;;;;;;18.50;10.60;;;;;;;8.42;80.88;100739.14;105243;1290;62439;-81
2022/12/07 10:42:28;;;;;;;15.30;9.60;;;;;;;8.58;81.13;100747.31;105091;1294;63719;-81
2022/12/07 10:45:12;;;;;;;17.70;9.60;;;;;;;8.71;80.56;100750.29;105135;1293;62064;-80
2022/12/07 10:47:59;;;;;;;14.50;10.20;;;;;;;8.71;80.71;100747.86;105279;1298;57149;-81
2022/12/07 10:50:45;;;;;;;18.70;10.90;;;;;;;8.59;79.19;100746.44;105254;1293;72918;-79
2022/12/07 10:54:01;;;;;;;14.80;9.90;;;;;;;8.20;79.75;100749.19;105458;1289;60830;-79
2022/12/07 10:56:40;;;;;;;18.90;11.10;;;;;;;8.03;80.19;100747.80;105208;1301;59255;-79
2022/12/07 10:59:34;;;;;;;16.20;10.80;;;;;;;8.22;80.90;100750.40;105326;1292;73549;-81
2022/12/07 11:02:41;;;;;;;17.20;11.00;;;;;;;8.38;81.58;100747.02;105196;1293;63563;-80
2022/12/07 11:05:36;;;;;;;19.20;10.80;;;;;;;8.38;80.72;100748.05;105266;1295;59648;-80
2022/12/07 11:08:32;;;;;;;17.00;11.00;;;;;;;8.23;79.40;100743.08;105395;1292;72822;-80
2022/12/07 11:11:23;;;;;;;17.10;10.90;;;;;;;7.97;80.22;100740.14;105352;1294;61665;-81
2022/12/07 11:14:06;;;;;;;39.80;13.10;;;;;;;8.13;80.39;100738.30;105172;1297;59317;-80
2022/12/07 11:17:05;;;;;;;17.50;10.90;;;;;;;8.20;80.09;100735.96;105227;1292;63425;-81
2022/12/07 11:20:25;;;;;;;16.70;10.50;;;;;;;8.22;79.75;100732.73;105241;1293;57220;-81
2022/12/07 11:23:30;;;;;;;23.50;11.80;;;;;;;8.48;80.33;100733.21;105377;1294;61403;-82
2022/12/07 11:26:22;;;;;;;18.40;11.00;;;;;;;8.56;79.68;100744.90;105297;1295;63111;-81
2022/12/07 11:29:06;;;;;;;25.00;12.20;;;;;;;8.78;80.86;100751.48;105468;1293;61295;-79
2022/12/07 11:32:18;;;;;;;17.60;10.40;;;;;;;8.90;80.58;100758.70;105488;1284;60993;-81
2022/12/07 11:34:56;;;;;;;18.40;9.90;;;;;;;9.04;78.83;100764.15;105098;1299;63169;-80
2022/12/07 11:37:33;;;;;;;15.50;9.50;;;;;;;9.01;76.98;100767.32;105331;1299;57703;-80
2022/12/07 11:40:34;;;;;;;14.10;8.80;;;;;;;8.73;78.45;100767.88;105310;1290;62053;-80
2022/12/07 11:43:33;;;;;;;15.80;9.60;;;;;;;8.75;77.81;100764.48;105047;1298;62173;-82
2022/12/07 11:46:16;;;;;;;15.10;9.00;;;;;;;8.55;79.17;100762.29;105346;1286;72318;-81
2022/12/07 11:49:23;;;;;;;15.30;9.80;;;;;;;8.54;79.74;100760.64;105239;1295;59868;-81